Carnival Victory — 3FFL8 — position and weather

sailwx.info

Track history (hours):
 
Tides and Currents Weather Stations Pressure Air Temp Water Temp Dewpoint Dewpoint Depression Visibility Wind Speed Wind Dir Waves Ship Positions

Carnival Victory

Operator: Carnival Cruise Lines

Last reported at 2017-Oct-19 06:00 UTC. Time now 2017-Oct-20 03:37 UTC.
Position N 21°24' W 086°06'.

Type: Passenger vessel. MMSI: 355263000.

Wind from 180 at 19 knots

Barometer 1013.8 mb
Air temperature 27.0 ° C
Visibility: greater than 10.8 NM
Dewpoint 24.3 ° C
Water temperature 30.0 ° C

Date/timePositionNaut miles runAvg speedWind from/ knotsBaromVisibWave heightAir tempDewpointWater temp
2017-Oct-19 06:00N 21°24' W 086°06'5819.9 180 / 191013.810.8 27.024.330.0
2017-Oct-19 03:04N 20°43' W 086°50'220.4
2017-Oct-19 02:59N 20°42' W 086°52'920.0
2017-Oct-19 02:30N 20°35' W 086°58'611.0
2017-Oct-19 01:57N 20°29' W 086°59'0 0.0
2017-Oct-19 01:31N 20°29' W 086°59'0 0.0
2017-Oct-19 01:00N 20°29' W 086°59'0 0.0
2017-Oct-19 00:31N 20°29' W 086°59'0 0.0
2017-Oct-19 00:00N 20°29' W 086°59'0 0.0
2017-Oct-18 23:31N 20°29' W 086°59'0 0.0
2017-Oct-18 22:52N 20°29' W 086°59'0 0.0
2017-Oct-18 22:30N 20°29' W 086°59'0 0.0
2017-Oct-18 21:58N 20°29' W 086°59'0 0.0
2017-Oct-18 21:31N 20°29' W 086°59'0 0.0
2017-Oct-18 21:00N 20°29' W 086°59'0 0.0
2017-Oct-18 20:28N 20°29' W 086°59'0 0.0
2017-Oct-18 20:01N 20°29' W 086°59'0 0.0
2017-Oct-18 19:30N 20°29' W 086°59'0 0.0
2017-Oct-18 18:57N 20°29' W 086°59'0 0.0
2017-Oct-18 18:28N 20°29' W 086°59'0 0.0
2017-Oct-18 17:57N 20°29' W 086°59'0 0.0
2017-Oct-18 17:30N 20°29' W 086°59'0 0.0
2017-Oct-18 17:01N 20°29' W 086°59'0 0.0
2017-Oct-18 16:31N 20°29' W 086°59'0 0.0
2017-Oct-18 16:01N 20°29' W 086°59'0 0.0
2017-Oct-18 15:30N 20°29' W 086°59'3 6.3
2017-Oct-18 15:00N 20°32' W 086°60'15417.1
2017-Oct-18 06:00N 22°18' W 085°00'25410.6 350 / 261013.810.8 27.024.330.0
2017-Oct-17 06:00N 24°24' W 081°00'7011.3 040 / 181014.3 5.4 27.024.330.0
2017-Oct-16 23:46N 25°08' W 080°00'414.4
2017-Oct-16 23:30N 25°12' W 079°59'714.1
2017-Oct-16 23:00N 25°19' W 079°57'713.8
2017-Oct-16 22:30N 25°26' W 079°55'714.0
2017-Oct-16 22:00N 25°33' W 079°55'713.5
2017-Oct-16 21:30N 25°39' W 079°56'714.1
2017-Oct-16 21:00N 25°44' W 080°02'510.4
2017-Oct-16 20:30N 25°46' W 080°07'3 4.9
2017-Oct-16 19:57N 25°47' W 080°10'0 0.0
2017-Oct-16 19:27N 25°47' W 080°10'0 0.0
2017-Oct-16 18:57N 25°47' W 080°10'0 0.0
2017-Oct-16 18:30N 25°47' W 080°10'0 0.0
2017-Oct-16 17:57N 25°47' W 080°10'0 0.0
2017-Oct-16 17:27N 25°47' W 080°10'0 0.0
2017-Oct-16 16:57N 25°47' W 080°10'0 0.0
2017-Oct-16 16:30N 25°47' W 080°10'0 0.0
2017-Oct-16 16:00N 25°47' W 080°10'0 0.0
2017-Oct-16 15:30N 25°47' W 080°10'0 0.0
2017-Oct-16 15:00N 25°47' W 080°10'0 0.0
2017-Oct-16 14:00N 25°47' W 080°10'0 0.0
2017-Oct-16 13:30N 25°47' W 080°10'0 0.0
2017-Oct-16 13:00N 25°47' W 080°10'0 0.0
2017-Oct-16 12:30N 25°47' W 080°10'0 0.0
2017-Oct-16 12:00N 25°47' W 080°10'0 0.0
2017-Oct-16 11:30N 25°47' W 080°10'0 0.0
2017-Oct-16 11:00N 25°47' W 080°10'0 0.3
2017-Oct-16 10:30N 25°47' W 080°10'0 0.4
2017-Oct-16 10:00N 25°47' W 080°10'5 9.4
2017-Oct-16 09:31N 25°46' W 080°05'5 9.5
2017-Oct-16 09:00N 25°48' W 079°60'510.7
2017-Oct-16 08:30N 25°50' W 079°54'611.0
2017-Oct-16 08:00N 25°52' W 079°49'510.3
2017-Oct-16 07:30N 25°53' W 079°43'5 9.2
2017-Oct-16 07:00N 25°56' W 079°39'5 9.3
2017-Oct-16 06:30N 25°60' W 079°36'5 9.4
2017-Oct-16 06:00N 26°04' W 079°33'5370.5
2017-Oct-16 06:00N 26°00' W 079°30'816.2 330 / 191014.8 5.4 27.024.330.0
2017-Oct-16 05:30N 26°08' W 079°31'5 9.9
2017-Oct-16 05:00N 26°12' W 079°28'4 8.9
2017-Oct-16 04:30N 26°16' W 079°26'5 8.9
2017-Oct-16 04:00N 26°19' W 079°22'510.4
2017-Oct-16 03:29N 26°19' W 079°16'59 1.3
2017-Oct-14 06:00N 26°06' W 078°12'5612.1 210 / 131016.210.8 28.025.330.0
2017-Oct-14 01:21N 26°15' W 079°14'613.2
2017-Oct-14 00:55N 26°12' W 079°19'613.4
2017-Oct-14 00:27N 26°08' W 079°25'613.6
2017-Oct-14 00:00N 26°05' W 079°31'714.0
2017-Oct-13 23:28N 26°01' W 079°37'714.3
2017-Oct-13 23:00N 25°57' W 079°43'714.1
2017-Oct-13 22:31N 25°53' W 079°50'713.9
2017-Oct-13 22:00N 25°50' W 079°57'612.4
2017-Oct-13 21:30N 25°47' W 080°03'510.2
2017-Oct-13 21:00N 25°46' W 080°08'3 5.0
2017-Oct-13 20:30N 25°47' W 080°11'1 1.5
2017-Oct-13 20:00N 25°47' W 080°10'0 0.0
2017-Oct-13 19:27N 25°47' W 080°10'0 0.0
2017-Oct-13 18:56N 25°47' W 080°10'0 0.0
2017-Oct-13 18:29N 25°47' W 080°10'0 0.0
2017-Oct-13 17:56N 25°47' W 080°10'0 0.0
2017-Oct-13 17:29N 25°47' W 080°10'0 0.0
2017-Oct-13 16:56N 25°47' W 080°10'0 0.0
2017-Oct-13 16:26N 25°47' W 080°10'0 0.0
2017-Oct-13 15:59N 25°47' W 080°10'0 0.0
2017-Oct-13 15:29N 25°47' W 080°10'0 0.0
2017-Oct-13 14:59N 25°47' W 080°10'0 0.0
2017-Oct-13 14:29N 25°47' W 080°10'0 0.0
2017-Oct-13 13:59N 25°47' W 080°10'0 0.0
2017-Oct-13 13:29N 25°47' W 080°10'0 0.0
2017-Oct-13 12:59N 25°47' W 080°10'0 0.0
2017-Oct-13 12:29N 25°47' W 080°10'0 0.0
2017-Oct-13 11:59N 25°47' W 080°10'0 0.0
2017-Oct-13 11:29N 25°47' W 080°10'0 0.0
2017-Oct-13 10:59N 25°47' W 080°10'0 0.8
2017-Oct-13 10:30N 25°47' W 080°10'4 8.6
2017-Oct-13 10:00N 25°46' W 080°05'5 9.8
2017-Oct-13 09:30N 25°45' W 079°60'611.2
2017-Oct-13 09:00N 25°41' W 079°55'612.5
2017-Oct-13 08:30N 25°35' W 079°55'713.3
2017-Oct-13 08:00N 25°28' W 079°55'714.3
2017-Oct-13 07:31N 25°21' W 079°56'2818.2
2017-Oct-13 06:00N 24°54' W 080°00'40116.7 160 / 261011.3 5.4 28.025.330.0
2017-Oct-12 06:00N 21°24' W 086°12'5418.1 190 / 131012.0 5.4 28.025.330.0
2017-Oct-12 03:00N 20°43' W 086°50'1019.7
2017-Oct-12 02:30N 20°36' W 086°57'814.9
2017-Oct-12 01:59N 20°29' W 086°59'0 0.8
2017-Oct-12 01:29N 20°29' W 086°59'0 0.0
2017-Oct-12 00:59N 20°29' W 086°59'0 0.0
2017-Oct-12 00:29N 20°29' W 086°59'0 0.0
2017-Oct-11 23:59N 20°29' W 086°59'0 0.0
2017-Oct-11 23:26N 20°29' W 086°59'0 0.0
2017-Oct-11 22:59N 20°29' W 086°59'0 0.0
2017-Oct-11 22:29N 20°29' W 086°59'0 0.0
2017-Oct-11 21:59N 20°29' W 086°59'0 0.0
2017-Oct-11 21:29N 20°29' W 086°59'0 0.0
2017-Oct-11 20:59N 20°29' W 086°59'0 0.0
2017-Oct-11 20:29N 20°29' W 086°59'0 0.0
2017-Oct-11 19:59N 20°29' W 086°59'0 0.0
2017-Oct-11 19:29N 20°29' W 086°59'0 0.0
2017-Oct-11 18:59N 20°29' W 086°59'0 0.0
2017-Oct-11 18:29N 20°29' W 086°59'0 0.0
2017-Oct-11 17:59N 20°29' W 086°59'0 0.0
2017-Oct-11 17:29N 20°29' W 086°59'0 0.0
2017-Oct-11 16:56N 20°29' W 086°59'14713.5
2017-Oct-11 06:00N 22°12' W 085°06'22419.5 350 / 291012.110.8 27.024.330.0
2017-Oct-10 18:31N 24°25' W 081°50'117.5
2017-Oct-10 18:27N 24°26' W 081°49'612.5
2017-Oct-10 18:00N 24°31' W 081°49'18 2.0
2017-Oct-10 09:00N 24°18' W 081°36'3311.1 050 / 241013.3 27.022.826.0
2017-Oct-10 06:00N 24°24' W 081°00'5 8.2 360 / 241013.6 5.4 27.024.330.0
2017-Oct-10 05:20N 24°25' W 080°54'411.3
2017-Oct-10 05:00N 24°26' W 080°50'2213.5
2017-Oct-10 03:22N 24°34' W 080°28'513.3
2017-Oct-10 03:00N 24°37' W 080°23'713.3
2017-Oct-10 02:30N 24°41' W 080°18'713.2
2017-Oct-10 02:00N 24°45' W 080°12'713.7
2017-Oct-10 01:30N 24°51' W 080°09'713.8
2017-Oct-10 01:00N 24°58' W 080°05'713.6
2017-Oct-10 00:30N 25°04' W 080°02'713.3
2017-Oct-10 00:00N 25°10' W 079°60'713.2
2017-Oct-09 23:30N 25°16' W 079°57'713.1
2017-Oct-09 23:00N 25°23' W 079°55'612.9
2017-Oct-09 22:30N 25°29' W 079°55'612.5
2017-Oct-09 22:00N 25°35' W 079°55'612.4
2017-Oct-09 21:30N 25°41' W 079°57'714.0
2017-Oct-09 21:00N 25°45' W 080°03'510.8
2017-Oct-09 20:30N 25°46' W 080°09'1 2.0
2017-Oct-09 20:00N 25°47' W 080°10'0 0.0
2017-Oct-09 19:30N 25°47' W 080°10'0 0.0
2017-Oct-09 18:54N 25°47' W 080°10'0 0.0
2017-Oct-09 18:30N 25°47' W 080°10'0 0.0
2017-Oct-09 18:00N 25°47' W 080°10'0 0.0
2017-Oct-09 17:27N 25°47' W 080°10'0 0.0
2017-Oct-09 16:54N 25°47' W 080°10'0 0.0
2017-Oct-09 16:30N 25°47' W 080°10'0 0.0
2017-Oct-09 16:00N 25°47' W 080°10'0 0.0
2017-Oct-09 15:30N 25°47' W 080°10'0 0.0
2017-Oct-09 15:00N 25°47' W 080°10'0 0.0
2017-Oct-09 14:30N 25°47' W 080°10'0 0.0
2017-Oct-09 13:24N 25°47' W 080°10'0 0.0
2017-Oct-09 12:57N 25°47' W 080°10'0 0.0
2017-Oct-09 12:30N 25°47' W 080°10'0 0.0
2017-Oct-09 12:00N 25°47' W 080°10'0 0.0
2017-Oct-09 11:27N 25°47' W 080°10'0 0.0
2017-Oct-09 11:00N 25°47' W 080°10'0 0.9
2017-Oct-09 10:30N 25°47' W 080°11'1 2.6
2017-Oct-09 10:00N 25°46' W 080°09'510.4
2017-Oct-09 09:30N 25°46' W 080°03'4 8.4
2017-Oct-09 09:00N 25°48' W 079°59'4 8.2
2017-Oct-09 08:31N 25°50' W 079°55'510.0
2017-Oct-09 08:00N 25°52' W 079°50'510.7
2017-Oct-09 07:31N 25°54' W 079°44'510.5
2017-Oct-09 07:01N 25°56' W 079°39'5 9.3
2017-Oct-09 06:26N 25°60' W 079°36'4 9.3
2017-Oct-09 06:00N 26°03' W 079°33'4385.8
2017-Oct-09 06:00N 26°00' W 079°30'   320 / 211013.510.8 28.025.330.0
Track history (hours):
 
Tides and Currents Weather Stations Pressure Air Temp Water Temp Dewpoint Dewpoint Depression Visibility Wind Speed Wind Dir Waves Ship Positions

Carnival Victory

Operator: Carnival Cruise Lines

Last reported at 2017-Oct-19 06:00 UTC. Time now 2017-Oct-20 03:37 UTC.
Position N 21°24' W 086°06'.

Type: Passenger vessel. MMSI: 355263000.

Wind from 180 at 19 knots

Barometer 1013.8 mb
Air temperature 27.0 ° C
Visibility: greater than 10.8 NM
Dewpoint 24.3 ° C
Water temperature 30.0 ° C

Date/timePositionNaut miles runAvg speedWind from/ knotsBaromVisibWave heightAir tempDewpointWater temp
2017-Oct-19 06:00N 21°24' W 086°06'5819.9 180 / 191013.810.8 27.024.330.0
2017-Oct-19 03:04N 20°43' W 086°50'220.4
2017-Oct-19 02:59N 20°42' W 086°52'920.0
2017-Oct-19 02:30N 20°35' W 086°58'611.0
2017-Oct-19 01:57N 20°29' W 086°59'0 0.0
2017-Oct-19 01:31N 20°29' W 086°59'0 0.0
2017-Oct-19 01:00N 20°29' W 086°59'0 0.0
2017-Oct-19 00:31N 20°29' W 086°59'0 0.0
2017-Oct-19 00:00N 20°29' W 086°59'0 0.0
2017-Oct-18 23:31N 20°29' W 086°59'0 0.0
2017-Oct-18 22:52N 20°29' W 086°59'0 0.0
2017-Oct-18 22:30N 20°29' W 086°59'0 0.0
2017-Oct-18 21:58N 20°29' W 086°59'0 0.0
2017-Oct-18 21:31N 20°29' W 086°59'0 0.0
2017-Oct-18 21:00N 20°29' W 086°59'0 0.0
2017-Oct-18 20:28N 20°29' W 086°59'0 0.0
2017-Oct-18 20:01N 20°29' W 086°59'0 0.0
2017-Oct-18 19:30N 20°29' W 086°59'0 0.0
2017-Oct-18 18:57N 20°29' W 086°59'0 0.0
2017-Oct-18 18:28N 20°29' W 086°59'0 0.0
2017-Oct-18 17:57N 20°29' W 086°59'0 0.0
2017-Oct-18 17:30N 20°29' W 086°59'0 0.0
2017-Oct-18 17:01N 20°29' W 086°59'0 0.0
2017-Oct-18 16:31N 20°29' W 086°59'0 0.0
2017-Oct-18 16:01N 20°29' W 086°59'0 0.0
2017-Oct-18 15:30N 20°29' W 086°59'3 6.3
2017-Oct-18 15:00N 20°32' W 086°60'15417.1
2017-Oct-18 06:00N 22°18' W 085°00'25410.6 350 / 261013.810.8 27.024.330.0
2017-Oct-17 06:00N 24°24' W 081°00'7011.3 040 / 181014.3 5.4 27.024.330.0
2017-Oct-16 23:46N 25°08' W 080°00'414.4
2017-Oct-16 23:30N 25°12' W 079°59'714.1
2017-Oct-16 23:00N 25°19' W 079°57'713.8
2017-Oct-16 22:30N 25°26' W 079°55'714.0
2017-Oct-16 22:00N 25°33' W 079°55'713.5
2017-Oct-16 21:30N 25°39' W 079°56'714.1
2017-Oct-16 21:00N 25°44' W 080°02'510.4
2017-Oct-16 20:30N 25°46' W 080°07'3 4.9
2017-Oct-16 19:57N 25°47' W 080°10'0 0.0
2017-Oct-16 19:27N 25°47' W 080°10'0 0.0
2017-Oct-16 18:57N 25°47' W 080°10'0 0.0
2017-Oct-16 18:30N 25°47' W 080°10'0 0.0
2017-Oct-16 17:57N 25°47' W 080°10'0 0.0
2017-Oct-16 17:27N 25°47' W 080°10'0 0.0
2017-Oct-16 16:57N 25°47' W 080°10'0 0.0
2017-Oct-16 16:30N 25°47' W 080°10'0 0.0
2017-Oct-16 16:00N 25°47' W 080°10'0 0.0
2017-Oct-16 15:30N 25°47' W 080°10'0 0.0
2017-Oct-16 15:00N 25°47' W 080°10'0 0.0
2017-Oct-16 14:00N 25°47' W 080°10'0 0.0
2017-Oct-16 13:30N 25°47' W 080°10'0 0.0
2017-Oct-16 13:00N 25°47' W 080°10'0 0.0
2017-Oct-16 12:30N 25°47' W 080°10'0 0.0
2017-Oct-16 12:00N 25°47' W 080°10'0 0.0
2017-Oct-16 11:30N 25°47' W 080°10'0 0.0
2017-Oct-16 11:00N 25°47' W 080°10'0 0.3
2017-Oct-16 10:30N 25°47' W 080°10'0 0.4
2017-Oct-16 10:00N 25°47' W 080°10'5 9.4
2017-Oct-16 09:31N 25°46' W 080°05'5 9.5
2017-Oct-16 09:00N 25°48' W 079°60'510.7
2017-Oct-16 08:30N 25°50' W 079°54'611.0
2017-Oct-16 08:00N 25°52' W 079°49'510.3
2017-Oct-16 07:30N 25°53' W 079°43'5 9.2
2017-Oct-16 07:00N 25°56' W 079°39'5 9.3
2017-Oct-16 06:30N 25°60' W 079°36'5 9.4
2017-Oct-16 06:00N 26°04' W 079°33'5370.5
2017-Oct-16 06:00N 26°00' W 079°30'816.2 330 / 191014.8 5.4 27.024.330.0
2017-Oct-16 05:30N 26°08' W 079°31'5 9.9
2017-Oct-16 05:00N 26°12' W 079°28'4 8.9
2017-Oct-16 04:30N 26°16' W 079°26'5 8.9
2017-Oct-16 04:00N 26°19' W 079°22'510.4
2017-Oct-16 03:29N 26°19' W 079°16'59 1.3
2017-Oct-14 06:00N 26°06' W 078°12'5612.1 210 / 131016.210.8 28.025.330.0
2017-Oct-14 01:21N 26°15' W 079°14'613.2
2017-Oct-14 00:55N 26°12' W 079°19'613.4
2017-Oct-14 00:27N 26°08' W 079°25'613.6
2017-Oct-14 00:00N 26°05' W 079°31'714.0
2017-Oct-13 23:28N 26°01' W 079°37'714.3
2017-Oct-13 23:00N 25°57' W 079°43'714.1
2017-Oct-13 22:31N 25°53' W 079°50'713.9
2017-Oct-13 22:00N 25°50' W 079°57'612.4
2017-Oct-13 21:30N 25°47' W 080°03'510.2
2017-Oct-13 21:00N 25°46' W 080°08'3 5.0
2017-Oct-13 20:30N 25°47' W 080°11'1 1.5
2017-Oct-13 20:00N 25°47' W 080°10'0 0.0
2017-Oct-13 19:27N 25°47' W 080°10'0 0.0
2017-Oct-13 18:56N 25°47' W 080°10'0 0.0
2017-Oct-13 18:29N 25°47' W 080°10'0 0.0
2017-Oct-13 17:56N 25°47' W 080°10'0 0.0
2017-Oct-13 17:29N 25°47' W 080°10'0 0.0
2017-Oct-13 16:56N 25°47' W 080°10'0 0.0
2017-Oct-13 16:26N 25°47' W 080°10'0 0.0
2017-Oct-13 15:59N 25°47' W 080°10'0 0.0
2017-Oct-13 15:29N 25°47' W 080°10'0 0.0
2017-Oct-13 14:59N 25°47' W 080°10'0 0.0
2017-Oct-13 14:29N 25°47' W 080°10'0 0.0
2017-Oct-13 13:59N 25°47' W 080°10'0 0.0
2017-Oct-13 13:29N 25°47' W 080°10'0 0.0
2017-Oct-13 12:59N 25°47' W 080°10'0 0.0
2017-Oct-13 12:29N 25°47' W 080°10'0 0.0
2017-Oct-13 11:59N 25°47' W 080°10'0 0.0
2017-Oct-13 11:29N 25°47' W 080°10'0 0.0
2017-Oct-13 10:59N 25°47' W 080°10'0 0.8
2017-Oct-13 10:30N 25°47' W 080°10'4 8.6
2017-Oct-13 10:00N 25°46' W 080°05'5 9.8
2017-Oct-13 09:30N 25°45' W 079°60'611.2
2017-Oct-13 09:00N 25°41' W 079°55'612.5
2017-Oct-13 08:30N 25°35' W 079°55'713.3
2017-Oct-13 08:00N 25°28' W 079°55'714.3
2017-Oct-13 07:31N 25°21' W 079°56'2818.2
2017-Oct-13 06:00N 24°54' W 080°00'40116.7 160 / 261011.3 5.4 28.025.330.0
2017-Oct-12 06:00N 21°24' W 086°12'5418.1 190 / 131012.0 5.4 28.025.330.0
2017-Oct-12 03:00N 20°43' W 086°50'1019.7
2017-Oct-12 02:30N 20°36' W 086°57'814.9
2017-Oct-12 01:59N 20°29' W 086°59'0 0.8
2017-Oct-12 01:29N 20°29' W 086°59'0 0.0
2017-Oct-12 00:59N 20°29' W 086°59'0 0.0
2017-Oct-12 00:29N 20°29' W 086°59'0 0.0
2017-Oct-11 23:59N 20°29' W 086°59'0 0.0
2017-Oct-11 23:26N 20°29' W 086°59'0 0.0
2017-Oct-11 22:59N 20°29' W 086°59'0 0.0
2017-Oct-11 22:29N 20°29' W 086°59'0 0.0
2017-Oct-11 21:59N 20°29' W 086°59'0 0.0
2017-Oct-11 21:29N 20°29' W 086°59'0 0.0
2017-Oct-11 20:59N 20°29' W 086°59'0 0.0
2017-Oct-11 20:29N 20°29' W 086°59'0 0.0
2017-Oct-11 19:59N 20°29' W 086°59'0 0.0
2017-Oct-11 19:29N 20°29' W 086°59'0 0.0
2017-Oct-11 18:59N 20°29' W 086°59'0 0.0
2017-Oct-11 18:29N 20°29' W 086°59'0 0.0
2017-Oct-11 17:59N 20°29' W 086°59'0 0.0
2017-Oct-11 17:29N 20°29' W 086°59'0 0.0
2017-Oct-11 16:56N 20°29' W 086°59'14713.5
2017-Oct-11 06:00N 22°12' W 085°06'22419.5 350 / 291012.110.8 27.024.330.0
2017-Oct-10 18:31N 24°25' W 081°50'117.5
2017-Oct-10 18:27N 24°26' W 081°49'612.5
2017-Oct-10 18:00N 24°31' W 081°49'18 2.0
2017-Oct-10 09:00N 24°18' W 081°36'3311.1 050 / 241013.3 27.022.826.0
2017-Oct-10 06:00N 24°24' W 081°00'5 8.2 360 / 241013.6 5.4 27.024.330.0
2017-Oct-10 05:20N 24°25' W 080°54'411.3
2017-Oct-10 05:00N 24°26' W 080°50'2213.5
2017-Oct-10 03:22N 24°34' W 080°28'513.3
2017-Oct-10 03:00N 24°37' W 080°23'713.3
2017-Oct-10 02:30N 24°41' W 080°18'713.2
2017-Oct-10 02:00N 24°45' W 080°12'713.7
2017-Oct-10 01:30N 24°51' W 080°09'713.8
2017-Oct-10 01:00N 24°58' W 080°05'713.6
2017-Oct-10 00:30N 25°04' W 080°02'713.3
2017-Oct-10 00:00N 25°10' W 079°60'713.2
2017-Oct-09 23:30N 25°16' W 079°57'713.1
2017-Oct-09 23:00N 25°23' W 079°55'612.9
2017-Oct-09 22:30N 25°29' W 079°55'612.5
2017-Oct-09 22:00N 25°35' W 079°55'612.4
2017-Oct-09 21:30N 25°41' W 079°57'714.0
2017-Oct-09 21:00N 25°45' W 080°03'510.8
2017-Oct-09 20:30N 25°46' W 080°09'1 2.0
2017-Oct-09 20:00N 25°47' W 080°10'0 0.0
2017-Oct-09 19:30N 25°47' W 080°10'0 0.0
2017-Oct-09 18:54N 25°47' W 080°10'0 0.0
2017-Oct-09 18:30N 25°47' W 080°10'0 0.0
2017-Oct-09 18:00N 25°47' W 080°10'0 0.0
2017-Oct-09 17:27N 25°47' W 080°10'0 0.0
2017-Oct-09 16:54N 25°47' W 080°10'0 0.0
2017-Oct-09 16:30N 25°47' W 080°10'0 0.0
2017-Oct-09 16:00N 25°47' W 080°10'0 0.0
2017-Oct-09 15:30N 25°47' W 080°10'0 0.0
2017-Oct-09 15:00N 25°47' W 080°10'0 0.0
2017-Oct-09 14:30N 25°47' W 080°10'0 0.0
2017-Oct-09 13:24N 25°47' W 080°10'0 0.0
2017-Oct-09 12:57N 25°47' W 080°10'0 0.0
2017-Oct-09 12:30N 25°47' W 080°10'0 0.0
2017-Oct-09 12:00N 25°47' W 080°10'0 0.0
2017-Oct-09 11:27N 25°47' W 080°10'0 0.0
2017-Oct-09 11:00N 25°47' W 080°10'0 0.9
2017-Oct-09 10:30N 25°47' W 080°11'1 2.6
2017-Oct-09 10:00N 25°46' W 080°09'510.4
2017-Oct-09 09:30N 25°46' W 080°03'4 8.4
2017-Oct-09 09:00N 25°48' W 079°59'4 8.2
2017-Oct-09 08:31N 25°50' W 079°55'510.0
2017-Oct-09 08:00N 25°52' W 079°50'510.7
2017-Oct-09 07:31N 25°54' W 079°44'510.5
2017-Oct-09 07:01N 25°56' W 079°39'5 9.3
2017-Oct-09 06:26N 25°60' W 079°36'4 9.3
2017-Oct-09 06:00N 26°03' W 079°33'4385.8
2017-Oct-09 06:00N 26°00' W 079°30'   320 / 211013.510.8 28.025.330.0

Dump ship's entire track history